createdAt,value
2019-01-17T00:01:20.582Z,0.50
2019-01-17T00:04:07.292Z,0.60
2019-01-17T00:06:53.990Z,0.70
2019-01-17T00:09:24.095Z,0.70
2019-01-17T00:12:12.370Z,0.80
2019-01-17T00:14:48.261Z,0.80
2019-01-17T00:17:35.014Z,0.80
2019-01-17T00:20:15.670Z,0.80
2019-01-17T00:22:57.424Z,0.80
2019-01-17T00:25:36.553Z,0.80
2019-01-17T00:28:06.721Z,0.90
2019-01-17T00:30:53.384Z,0.90
2019-01-17T00:33:32.477Z,0.90
2019-01-17T00:36:14.700Z,1.00
2019-01-17T00:38:47.642Z,1.00
2019-01-17T00:41:17.739Z,1.10
2019-01-17T00:43:47.852Z,1.10
2019-01-17T00:46:23.687Z,1.20
2019-01-17T00:48:53.780Z,1.20
2019-01-17T00:51:42.221Z,1.20
2019-01-17T00:54:18.110Z,1.20
2019-01-17T00:56:57.525Z,1.30
2019-01-17T00:59:30.710Z,1.30
2019-01-17T01:02:04.062Z,1.30
2019-01-17T01:04:37.498Z,1.30
2019-01-17T01:07:10.415Z,1.40
2019-01-17T01:09:57.104Z,1.40
2019-01-17T01:12:45.689Z,1.40
2019-01-17T01:15:30.828Z,1.50
2019-01-17T01:18:16.866Z,1.50
2019-01-17T01:20:46.971Z,1.60
2019-01-17T01:23:20.016Z,1.60
2019-01-17T01:25:53.162Z,1.70
2019-01-17T01:28:32.058Z,1.80
2019-01-17T01:31:07.865Z,1.90
2019-01-17T01:33:37.960Z,2.00
2019-01-17T01:36:11.143Z,2.20
2019-01-17T01:38:47.459Z,2.30
2019-01-17T01:41:20.735Z,2.50
2019-01-17T01:43:50.838Z,2.70
2019-01-17T01:46:21.015Z,3.00
2019-01-17T01:49:06.058Z,3.30
2019-01-17T01:51:39.114Z,3.60
2019-01-17T01:54:07.570Z,3.70
2019-01-17T01:56:36.004Z,4.00
2019-01-17T01:59:04.648Z,4.20
2019-01-17T02:01:33.184Z,4.10
2019-01-17T02:04:01.645Z,4.00
2019-01-17T02:06:30.186Z,4.20
2019-01-17T02:08:58.672Z,4.50
2019-01-17T02:11:27.118Z,4.50
2019-01-17T02:13:55.863Z,4.60
2019-01-17T02:16:24.317Z,4.60
2019-01-17T02:18:52.809Z,4.70
2019-01-17T02:21:21.255Z,4.70
2019-01-17T02:23:49.738Z,4.70
2019-01-17T02:26:18.279Z,4.80
2019-01-17T02:28:46.752Z,4.80
2019-01-17T02:31:15.246Z,4.90
2019-01-17T02:33:43.781Z,5.00
2019-01-17T02:36:12.333Z,5.00
2019-01-17T02:38:40.869Z,5.00
2019-01-17T02:41:09.313Z,5.10
2019-01-17T02:43:37.766Z,5.10
2019-01-17T02:46:06.404Z,5.20
2019-01-17T02:48:34.978Z,5.20
2019-01-17T02:51:03.502Z,5.20
2019-01-17T02:53:31.972Z,5.10
2019-01-17T02:56:00.439Z,5.10
2019-01-17T02:58:29.155Z,4.90
2019-01-17T03:00:57.663Z,5.00
2019-01-17T03:03:26.118Z,5.00
2019-01-17T03:05:54.579Z,5.00
2019-01-17T03:08:23.110Z,5.00
2019-01-17T03:10:51.579Z,4.90
2019-01-17T03:13:20.029Z,4.80
2019-01-17T03:15:48.489Z,4.80
2019-01-17T03:18:16.960Z,4.80
2019-01-17T03:20:45.410Z,4.80
2019-01-17T03:23:13.871Z,4.80
2019-01-17T03:25:42.364Z,4.80
2019-01-17T03:28:10.818Z,4.80
2019-01-17T03:30:39.304Z,5.00
2019-01-17T03:33:08.169Z,5.00
2019-01-17T03:35:36.656Z,5.00
2019-01-17T03:38:05.187Z,5.00
2019-01-17T03:40:33.658Z,5.10
2019-01-17T03:43:02.113Z,5.10
2019-01-17T03:45:30.604Z,5.10
2019-01-17T03:47:59.103Z,5.10
2019-01-17T03:50:27.673Z,5.10
2019-01-17T03:52:56.117Z,5.10
2019-01-17T03:55:25.125Z,5.10
2019-01-17T03:57:53.697Z,5.20
2019-01-17T04:00:22.286Z,5.20
2019-01-17T04:02:50.749Z,5.20
2019-01-17T04:05:19.285Z,5.20
2019-01-17T04:07:47.814Z,5.20
2019-01-17T04:10:16.609Z,5.20
2019-01-17T04:12:45.221Z,5.20
2019-01-17T04:15:14.281Z,5.20
2019-01-17T04:17:42.761Z,5.20
2019-01-17T04:20:13.873Z,5.20
2019-01-17T04:22:42.714Z,5.30
2019-01-17T04:25:11.168Z,5.30
2019-01-17T04:27:40.084Z,5.30
2019-01-17T04:30:13.938Z,5.20
2019-01-17T04:32:42.407Z,5.30
2019-01-17T04:35:10.943Z,5.40
2019-01-17T04:37:39.579Z,5.30
2019-01-17T04:40:10.876Z,5.20
2019-01-17T04:42:39.354Z,5.20
2019-01-17T04:45:10.520Z,5.20
2019-01-17T04:47:38.995Z,5.20
2019-01-17T04:50:13.044Z,5.20
2019-01-17T04:52:41.862Z,5.20
2019-01-17T04:55:12.066Z,5.40
2019-01-17T04:57:40.687Z,5.30
2019-01-17T05:00:15.063Z,5.30
2019-01-17T05:02:43.583Z,5.20
2019-01-17T05:05:12.315Z,5.30
2019-01-17T05:07:40.840Z,5.30
2019-01-17T05:10:12.286Z,5.30
2019-01-17T05:12:40.830Z,5.30
2019-01-17T05:15:10.416Z,5.30
2019-01-17T05:17:38.990Z,5.30
2019-01-17T05:20:14.989Z,5.30
2019-01-17T05:22:43.619Z,5.30
2019-01-17T05:25:13.147Z,5.40
2019-01-17T05:27:41.609Z,5.40
2019-01-17T05:30:15.878Z,5.50
2019-01-17T05:32:44.538Z,5.60
2019-01-17T05:35:13.270Z,5.50
2019-01-17T05:37:41.884Z,5.60
2019-01-17T05:40:18.679Z,5.50
2019-01-17T05:42:47.277Z,5.50
2019-01-17T05:45:16.456Z,5.50
2019-01-17T05:47:45.104Z,5.50
2019-01-17T05:50:17.934Z,5.60
2019-01-17T05:52:46.388Z,5.60
2019-01-17T05:55:19.780Z,5.70
2019-01-17T05:57:45.187Z,5.70
2019-01-17T06:00:16.489Z,5.70
2019-01-17T06:02:44.941Z,5.60
2019-01-17T06:05:14.143Z,5.60
2019-01-17T06:07:42.669Z,5.70
2019-01-17T06:10:12.375Z,5.60
2019-01-17T06:12:40.819Z,5.60
2019-01-17T06:15:15.336Z,5.60
2019-01-17T06:17:48.950Z,5.60
2019-01-17T06:20:17.999Z,5.70
2019-01-17T06:22:46.517Z,5.70
2019-01-17T06:25:15.048Z,5.70
2019-01-17T06:27:43.607Z,5.70
2019-01-17T06:30:14.564Z,5.60
2019-01-17T06:32:43.084Z,5.60
2019-01-17T06:35:11.972Z,5.60
2019-01-17T06:37:40.503Z,5.60
2019-01-17T06:40:20.823Z,5.50
2019-01-17T06:42:49.353Z,5.40
2019-01-17T06:45:17.898Z,5.30
2019-01-17T06:47:46.377Z,5.30
2019-01-17T06:50:14.890Z,5.20
2019-01-17T06:52:43.346Z,5.20
2019-01-17T06:55:11.863Z,5.20
2019-01-17T06:57:40.331Z,5.10
2019-01-17T07:00:11.666Z,5.10
2019-01-17T07:02:40.264Z,5.10
2019-01-17T07:05:09.558Z,5.10
2019-01-17T07:07:38.035Z,5.00
2019-01-17T07:10:09.586Z,5.00
2019-01-17T07:12:38.125Z,5.00
2019-01-17T07:15:08.603Z,4.90
2019-01-17T07:17:37.073Z,4.90
2019-01-17T07:20:08.129Z,5.00
2019-01-17T07:22:36.606Z,4.90
2019-01-17T07:25:07.258Z,4.90
2019-01-17T07:27:35.733Z,4.90
2019-01-17T07:30:07.709Z,4.90
2019-01-17T07:32:36.191Z,4.80
2019-01-17T07:35:05.777Z,4.80
2019-01-17T07:37:34.247Z,4.80
2019-01-17T07:40:02.838Z,4.80
2019-01-17T07:42:31.292Z,4.80
2019-01-17T07:44:59.754Z,4.80
2019-01-17T07:47:28.283Z,4.80
2019-01-17T07:49:56.750Z,4.80
2019-01-17T07:52:25.222Z,4.80
2019-01-17T07:54:53.691Z,4.80
2019-01-17T07:57:22.145Z,4.80
2019-01-17T07:59:50.614Z,4.80
2019-01-17T08:02:19.065Z,4.90
2019-01-17T08:04:47.529Z,4.90
2019-01-17T08:07:15.999Z,4.90
2019-01-17T08:09:44.457Z,4.90
2019-01-17T08:12:12.922Z,5.00
2019-01-17T08:14:41.392Z,5.00
2019-01-17T08:17:09.862Z,5.00
2019-01-17T08:19:38.338Z,5.00
2019-01-17T08:22:06.852Z,4.90
2019-01-17T08:24:35.338Z,5.00
2019-01-17T08:27:04.102Z,5.00
2019-01-17T08:29:32.577Z,5.00
2019-01-17T08:32:01.107Z,5.10
2019-01-17T08:34:29.570Z,5.20
2019-01-17T08:36:58.080Z,5.20
2019-01-17T08:39:26.604Z,5.20
2019-01-17T08:41:55.063Z,5.30
2019-01-17T08:44:23.528Z,5.30
2019-01-17T08:46:52.224Z,5.30
2019-01-17T08:49:20.675Z,5.30
2019-01-17T08:51:49.154Z,5.30
2019-01-17T08:54:17.580Z,5.30
2019-01-17T08:56:46.079Z,5.30
2019-01-17T08:59:14.551Z,5.40
2019-01-17T09:01:43.071Z,5.40
2019-01-17T09:04:11.560Z,5.50
2019-01-17T09:06:40.090Z,5.50
2019-01-17T09:09:09.280Z,5.50
2019-01-17T09:11:37.844Z,5.50
2019-01-17T09:14:06.611Z,5.40
2019-01-17T09:16:35.124Z,5.50
2019-01-17T09:19:03.862Z,5.50
2019-01-17T09:21:32.477Z,5.50
2019-01-17T09:24:01.083Z,5.50
2019-01-17T09:26:29.603Z,5.50
2019-01-17T09:28:58.059Z,5.40
2019-01-17T09:31:26.525Z,5.40
2019-01-17T09:33:55.091Z,5.40
2019-01-17T09:36:23.664Z,5.50
2019-01-17T09:38:52.204Z,5.50
2019-01-17T09:41:20.838Z,5.50
2019-01-17T09:43:49.496Z,5.50
2019-01-17T09:46:18.000Z,5.50
2019-01-17T09:48:46.509Z,5.50
2019-01-17T09:51:15.289Z,5.60
2019-01-17T09:53:43.762Z,5.60
2019-01-17T09:56:14.997Z,5.60
2019-01-17T09:58:42.433Z,5.60
2019-01-17T10:01:10.938Z,5.70
2019-01-17T10:03:39.455Z,5.80
2019-01-17T10:06:08.018Z,5.80
2019-01-17T10:08:36.483Z,5.90
2019-01-17T10:11:05.129Z,5.90
2019-01-17T10:13:33.650Z,5.90
2019-01-17T10:16:14.367Z,5.80
2019-01-17T10:19:03.028Z,5.80
2019-01-17T10:21:46.659Z,5.90
2019-01-17T10:24:34.872Z,5.80
2019-01-17T10:27:12.463Z,5.80
2019-01-17T10:30:15.869Z,5.90
2019-01-17T10:32:50.342Z,5.90
2019-01-17T10:35:41.629Z,5.90
2019-01-17T10:38:22.122Z,5.90
2019-01-17T10:41:10.366Z,5.90
2019-01-17T10:43:57.119Z,5.90
2019-01-17T10:46:46.937Z,5.90
2019-01-17T10:49:39.843Z,6.00
2019-01-17T10:52:20.312Z,6.00
2019-01-17T10:54:52.007Z,6.00
2019-01-17T10:57:23.596Z,6.00
2019-01-17T10:59:58.014Z,6.00
2019-01-17T11:02:35.427Z,6.00
2019-01-17T11:05:18.971Z,6.00
2019-01-17T11:07:56.282Z,6.00
2019-01-17T11:10:44.384Z,6.10
2019-01-17T11:13:34.086Z,6.10
2019-01-17T11:16:17.435Z,6.10
2019-01-17T11:19:15.673Z,6.20
2019-01-17T11:22:02.392Z,6.20
2019-01-17T11:25:06.886Z,6.30
2019-01-17T11:27:56.289Z,6.30
2019-01-17T11:30:30.828Z,6.30
2019-01-17T11:33:14.090Z,6.30
2019-01-17T11:35:45.894Z,6.30
2019-01-17T11:38:29.308Z,6.20
2019-01-17T11:41:23.583Z,6.20
2019-01-17T11:44:13.521Z,6.10
2019-01-17T11:47:08.959Z,6.00
2019-01-17T11:50:05.934Z,6.00
2019-01-17T11:52:41.429Z,5.90
2019-01-17T11:55:34.713Z,5.90
2019-01-17T11:59:12.705Z,5.80
2019-01-17T12:01:50.687Z,5.80
2019-01-17T12:04:40.235Z,5.80
2019-01-17T12:07:13.815Z,5.80
2019-01-17T12:09:52.880Z,5.80
2019-01-17T12:12:25.074Z,5.90
2019-01-17T12:15:01.973Z,5.90
2019-01-17T12:17:30.464Z,6.10
2019-01-17T12:19:58.949Z,6.10
2019-01-17T12:22:27.522Z,6.20
2019-01-17T12:24:57.005Z,6.20
2019-01-17T12:27:25.508Z,6.20
2019-01-17T12:29:54.119Z,6.20
2019-01-17T12:32:22.637Z,6.10
2019-01-17T12:34:51.118Z,6.10
2019-01-17T12:37:19.605Z,6.00
2019-01-17T12:39:48.130Z,5.90
2019-01-17T12:42:16.894Z,5.90
2019-01-17T12:44:45.345Z,6.00
2019-01-17T12:47:14.014Z,6.10
2019-01-17T12:49:42.563Z,6.10
2019-01-17T12:52:11.043Z,6.20
2019-01-17T12:54:39.514Z,6.20
2019-01-17T12:57:07.966Z,6.30
2019-01-17T12:59:36.470Z,6.30
2019-01-17T13:02:09.087Z,6.40
2019-01-17T13:04:41.511Z,6.40
2019-01-17T13:07:13.537Z,6.40
2019-01-17T13:09:51.418Z,6.40
2019-01-17T13:12:24.736Z,6.40
2019-01-17T13:15:20.057Z,6.40
2019-01-17T13:17:49.140Z,6.30
2019-01-17T13:20:22.037Z,6.30
2019-01-17T13:22:56.042Z,6.30
2019-01-17T13:25:34.627Z,6.20
2019-01-17T13:28:05.362Z,6.20
2019-01-17T13:30:37.878Z,6.30
2019-01-17T13:33:06.975Z,6.50
2019-01-17T13:35:37.493Z,6.60
2019-01-17T13:38:06.510Z,6.80
2019-01-17T13:40:39.796Z,6.70
2019-01-17T13:43:13.619Z,6.80
2019-01-17T13:45:47.666Z,6.70
2019-01-17T13:48:21.315Z,6.60
2019-01-17T13:50:54.599Z,6.50
2019-01-17T13:53:26.373Z,6.40
2019-01-17T13:55:56.604Z,6.50
2019-01-17T13:58:30.148Z,6.60
2019-01-17T14:01:08.302Z,6.50
2019-01-17T14:03:37.442Z,6.40
2019-01-17T14:06:09.255Z,6.40
2019-01-17T14:08:38.448Z,6.40
2019-01-17T14:11:11.890Z,6.30
2019-01-17T14:13:41.142Z,6.20
2019-01-17T14:16:15.949Z,6.00
2019-01-17T14:18:47.878Z,6.00
2019-01-17T14:21:18.606Z,5.90
2019-01-17T14:23:50.269Z,5.90
2019-01-17T14:26:24.206Z,5.90
2019-01-17T14:28:57.399Z,5.80
2019-01-17T14:31:35.965Z,5.70
2019-01-17T14:34:05.336Z,5.50
2019-01-17T14:36:37.674Z,5.50
2019-01-17T14:39:12.250Z,5.50
2019-01-17T14:41:45.971Z,5.40
2019-01-17T14:44:18.318Z,5.40
2019-01-17T14:46:49.884Z,5.20
2019-01-17T14:49:22.228Z,5.10
2019-01-17T14:51:51.460Z,5.00
2019-01-17T14:54:21.876Z,5.00
2019-01-17T14:57:05.922Z,5.00
2019-01-17T14:59:42.857Z,5.00
2019-01-17T15:02:11.890Z,5.00
2019-01-17T15:04:46.873Z,4.90
2019-01-17T15:07:19.113Z,5.00
2019-01-17T15:09:48.005Z,5.00
2019-01-17T15:12:17.103Z,4.90
2019-01-17T15:14:50.739Z,4.80
2019-01-17T15:17:21.694Z,4.80
2019-01-17T15:19:52.019Z,4.70
2019-01-17T15:22:24.049Z,4.70
2019-01-17T15:24:57.955Z,4.80
2019-01-17T15:27:27.570Z,4.90
2019-01-17T15:30:04.523Z,4.90
2019-01-17T15:32:33.629Z,4.90
2019-01-17T15:35:07.464Z,4.90
2019-01-17T15:37:41.836Z,4.90
2019-01-17T15:40:15.322Z,4.90
2019-01-17T15:42:49.391Z,4.90
2019-01-17T15:45:21.007Z,4.90
2019-01-17T15:47:50.325Z,4.90
2019-01-17T15:50:22.001Z,4.90
2019-01-17T15:52:56.509Z,4.80
2019-01-17T15:55:25.627Z,4.60
2019-01-17T15:57:56.352Z,4.60
2019-01-17T16:00:32.088Z,4.40
2019-01-17T16:03:01.103Z,4.40
2019-01-17T16:05:33.160Z,4.30
2019-01-17T16:08:09.081Z,4.30
2019-01-17T16:10:45.642Z,4.20
2019-01-17T16:13:25.124Z,4.30
2019-01-17T16:16:01.669Z,4.30
2019-01-17T16:18:30.897Z,4.30
2019-01-17T16:21:11.051Z,4.30
2019-01-17T16:23:47.493Z,4.30
2019-01-17T16:26:19.227Z,4.30
2019-01-17T16:28:48.469Z,4.40
2019-01-17T16:31:22.930Z,4.30
2019-01-17T16:33:52.244Z,4.30
2019-01-17T16:36:30.398Z,4.30
2019-01-17T16:39:01.899Z,4.30
2019-01-17T16:41:36.732Z,4.40
2019-01-17T16:44:11.713Z,4.50
2019-01-17T16:46:42.138Z,4.50
2019-01-17T16:49:19.732Z,4.60
2019-01-17T16:51:53.439Z,4.50
2019-01-17T16:54:24.039Z,4.40
2019-01-17T16:56:59.051Z,4.40
2019-01-17T16:59:34.088Z,4.20
2019-01-17T17:02:07.635Z,4.20
2019-01-17T17:04:47.377Z,4.20
2019-01-17T17:07:24.041Z,4.20
2019-01-17T17:09:58.181Z,4.20
2019-01-17T17:12:33.044Z,4.20
2019-01-17T17:15:08.853Z,4.20
2019-01-17T17:17:47.177Z,4.20
2019-01-17T17:20:21.580Z,4.20
2019-01-17T17:22:52.153Z,4.30
2019-01-17T17:25:25.407Z,4.40
2019-01-17T17:28:00.971Z,4.50
2019-01-17T17:30:31.777Z,4.60
2019-01-17T17:33:01.230Z,4.50
2019-01-17T17:35:33.993Z,4.50
2019-01-17T17:38:09.000Z,4.50
2019-01-17T17:40:42.337Z,4.60
2019-01-17T17:43:15.311Z,4.50
2019-01-17T17:45:57.173Z,4.10
2019-01-17T17:48:36.131Z,3.50
2019-01-17T17:51:05.650Z,3.00
2019-01-17T17:53:41.387Z,2.80
2019-01-17T17:56:22.431Z,2.70
2019-01-17T17:58:59.765Z,2.70
2019-01-17T18:01:33.739Z,2.70
2019-01-17T18:04:02.957Z,2.60
2019-01-17T18:06:53.629Z,2.60
2019-01-17T18:09:19.333Z,2.50
2019-01-17T18:11:57.528Z,2.50
2019-01-17T18:14:32.940Z,2.50
2019-01-17T18:17:01.431Z,2.40
2019-01-17T18:19:29.900Z,2.30
2019-01-17T18:21:58.432Z,2.30
2019-01-17T18:24:26.992Z,2.30
2019-01-17T18:26:55.522Z,2.20
2019-01-17T18:29:23.992Z,2.20
2019-01-17T18:31:52.909Z,2.20
2019-01-17T18:34:21.450Z,2.20
2019-01-17T18:36:49.984Z,2.10
2019-01-17T18:39:18.825Z,2.10
2019-01-17T18:41:47.343Z,2.10
2019-01-17T18:44:15.791Z,2.00
2019-01-17T18:46:44.271Z,2.00
2019-01-17T18:49:12.990Z,2.00
2019-01-17T18:51:41.585Z,2.00
2019-01-17T18:54:10.047Z,2.00
2019-01-17T18:56:38.680Z,2.10
2019-01-17T18:59:07.306Z,2.10
2019-01-17T19:01:36.221Z,2.20
2019-01-17T19:04:04.819Z,2.20
2019-01-17T19:06:33.274Z,2.20
2019-01-17T19:09:01.740Z,2.20
2019-01-17T19:11:30.466Z,2.10
2019-01-17T19:13:59.407Z,2.10
2019-01-17T19:16:27.856Z,2.00
2019-01-17T19:18:56.421Z,2.00
2019-01-17T19:21:24.882Z,1.90
2019-01-17T19:23:53.698Z,1.80
2019-01-17T19:26:22.322Z,1.70
2019-01-17T19:28:50.947Z,1.60
2019-01-17T19:31:19.400Z,1.50
2019-01-17T19:33:47.857Z,1.50
2019-01-17T19:36:16.531Z,1.40
2019-01-17T19:38:44.996Z,1.40
2019-01-17T19:41:13.536Z,1.40
2019-01-17T19:43:42.075Z,1.40
2019-01-17T19:46:10.541Z,1.50
2019-01-17T19:48:38.984Z,1.40
2019-01-17T19:51:07.882Z,1.50
2019-01-17T19:53:36.353Z,1.60
2019-01-17T19:56:04.943Z,1.70
2019-01-17T19:58:33.944Z,1.80
2019-01-17T20:01:08.419Z,1.90
2019-01-17T20:03:36.939Z,2.00
2019-01-17T20:06:05.757Z,2.10
2019-01-17T20:08:34.573Z,2.10
2019-01-17T20:11:03.035Z,2.20
2019-01-17T20:13:31.522Z,2.30
2019-01-17T20:16:00.049Z,2.30
2019-01-17T20:18:28.760Z,2.30
2019-01-17T20:20:57.579Z,2.30
2019-01-17T20:23:26.422Z,2.30
2019-01-17T20:25:54.882Z,2.30
2019-01-17T20:28:23.421Z,2.20
2019-01-17T20:30:51.887Z,2.20
2019-01-17T20:33:20.350Z,2.20
2019-01-17T20:35:48.842Z,2.20
2019-01-17T20:38:17.383Z,2.20
2019-01-17T20:40:45.921Z,2.20
2019-01-17T20:43:14.459Z,2.20
2019-01-17T20:45:43.001Z,2.20
2019-01-17T20:48:12.321Z,2.20
2019-01-17T20:50:40.874Z,2.20
2019-01-17T20:53:09.341Z,2.10
2019-01-17T20:55:37.879Z,2.20
2019-01-17T20:58:06.343Z,2.10
2019-01-17T21:00:43.869Z,2.10
2019-01-17T21:03:14.480Z,2.10
2019-01-17T21:05:42.973Z,2.10
2019-01-17T21:08:11.502Z,2.10
2019-01-17T21:10:40.135Z,2.00
2019-01-17T21:13:08.704Z,1.90
2019-01-17T21:15:37.157Z,1.90
2019-01-17T21:18:05.691Z,1.80
2019-01-17T21:20:34.173Z,1.70
2019-01-17T21:23:02.618Z,1.70
2019-01-17T21:25:31.153Z,1.60
2019-01-17T21:27:59.592Z,1.70
2019-01-17T21:30:28.055Z,1.70
2019-01-17T21:32:56.643Z,1.70
2019-01-17T21:35:25.113Z,1.80
2019-01-17T21:37:53.573Z,1.70
2019-01-17T21:40:23.858Z,1.70
2019-01-17T21:42:53.575Z,1.80
2019-01-17T21:45:22.178Z,1.70
2019-01-17T21:47:50.692Z,1.80
2019-01-17T21:50:30.871Z,1.70
2019-01-17T21:52:59.521Z,1.70
2019-01-17T21:55:28.070Z,1.70
2019-01-17T21:57:56.536Z,1.60
2019-01-17T22:00:27.614Z,1.60
2019-01-17T22:02:56.350Z,1.50
2019-01-17T22:05:24.933Z,1.40
2019-01-17T22:07:53.389Z,1.40
2019-01-17T22:10:22.242Z,1.30
2019-01-17T22:12:50.744Z,1.20
2019-01-17T22:15:22.102Z,1.10
2019-01-17T22:17:50.707Z,1.10
2019-01-17T22:20:19.257Z,1.10
2019-01-17T22:22:47.790Z,1.00
2019-01-17T22:25:18.188Z,1.00
2019-01-17T22:27:47.992Z,1.00
2019-01-17T22:30:27.990Z,1.00
2019-01-17T22:32:56.621Z,0.90
2019-01-17T22:35:25.074Z,0.90
2019-01-17T22:37:53.535Z,0.90
2019-01-17T22:40:22.080Z,0.80
2019-01-17T22:42:50.614Z,0.80
2019-01-17T22:45:24.947Z,0.80
2019-01-17T22:47:53.550Z,0.80
2019-01-17T22:50:22.075Z,0.80
2019-01-17T22:52:51.363Z,0.90
2019-01-17T22:55:19.842Z,0.80
2019-01-17T22:57:48.296Z,0.80
2019-01-17T23:00:40.857Z,0.80
2019-01-17T23:03:09.339Z,0.80
2019-01-17T23:05:37.788Z,0.80
2019-01-17T23:08:06.245Z,0.80
2019-01-17T23:10:34.711Z,0.80
2019-01-17T23:13:03.185Z,0.80
2019-01-17T23:15:31.648Z,0.80
2019-01-17T23:18:00.108Z,0.70
2019-01-17T23:20:28.622Z,0.70
2019-01-17T23:22:57.087Z,0.60
2019-01-17T23:25:25.767Z,0.40
2019-01-17T23:27:54.251Z,0.30
2019-01-17T23:30:22.957Z,0.30
2019-01-17T23:32:54.365Z,0.20
2019-01-17T23:35:22.880Z,0.10
2019-01-17T23:37:51.325Z,0.00
2019-01-17T23:40:20.138Z,0.00
2019-01-17T23:42:48.588Z,0.00
2019-01-17T23:45:17.040Z,0.00
2019-01-17T23:47:45.485Z,0.10
2019-01-17T23:50:14.069Z,0.10
2019-01-17T23:52:42.514Z,0.10
2019-01-17T23:55:11.038Z,0.10
2019-01-17T23:57:39.492Z,0.10
